Onweer radar Meer informatie blitzortung!


Regen radar Meer informatie rain snow radar


Bezoek onze andere website:

Template documentation
and downloads

And another site



Het weer levert geen direct gevaar op.    Er zijn geen waarschuwingen afgegeven.

METAR rapporten vliegvelden

   
EBAW - Antwerp
Gewijzigd: 21-01-2019 03:20
Helder  
Helder  
   Wind: varieert 1.9 km/h
Wind: varieert 1.9 km/h
Temperatuur: -6°C
Dauwpunt: -7°C
Vochtigheid: 93%
Barometer: 1023 hPa
Zicht: meer dan 10 km
Bewolking: Helder
EBAW 210220Z AUTO VRB01KT CAVOK M06/M07 Q1023
EBLG - Li├Ęge
Gewijzigd: 21-01-2019 03:20
Gedeeltelijk bewolkt  
Gedeeltelijk bewolkt  
   Wind: varieert 1.9 km/h
Wind: varieert 1.9 km/h
Temperatuur: -4°C
Dauwpunt: -6°C
Vochtigheid: 86%
Barometer: 1022 hPa
Bewolking: Gedeeltelijk bewolkt
Zicht: 7 km
Bewolking: Gedeeltelijk bewolkt
EBLG 210220Z VRB01KT 7000 NSC M04/M06 Q1022 BECMG 3000 BR
EBCV - Mons/Bergen
Gewijzigd: 21-01-2019 02:55
Helder  
Helder  
   Wind: Noorden 7.4 km/h
Wind: Noorden 7.4 km/h
Temperatuur: -4°C
Voelt als: -7°C
Dauwpunt: -5°C
Vochtigheid: 93%
Barometer: 1023 hPa
Bewolking: Helder
Zicht: 8 km
Bewolking: Helder
EBCV 210155Z AUTO 01004KT 8000 NCD M04/M05 Q1023 BLU
EHBK - Maastricht
Gewijzigd: 21-01-2019 03:25
Licht bewolkt  
Licht bewolkt  
   Wind: varieert 3.7 km/h
Wind: varieert 3.7 km/h
Temperatuur: -6°C
Dauwpunt: -6°C
Vochtigheid: 100%
Barometer: 1022 hPa
Bewolking: Licht bewolkt
Zicht: 9 km
Bewolking: Licht bewolkt 1500 ft
EHBK 210225Z AUTO VRB02KT 9000 FEW015CB M06/M06 Q1022
ELLX - Luxemburg
Gewijzigd: 21-01-2019 03:20
Helder  
Helder  
   Wind: NNO 16.7 km/h
Wind: NNO 16.7 km/h
Temperatuur: -5°C
Voelt als: -11°C
Dauwpunt: -7°C
Vochtigheid: 86%
Barometer: 1019 hPa
Bewolking: Helder
Zicht: meer dan 10 km
Bewolking: Helder
ELLX 210220Z AUTO 03009KT 9999 NCD M05/M07 Q1019 NOSIG
EBOS - Oostende
Gewijzigd: 21-01-2019 03:20
Helder  
Helder  
   Wind: OZO 1.9 km/h
Wind: OZO 1.9 km/h
Temperatuur: -5°C
Dauwpunt: -7°C
Vochtigheid: 86%
Barometer: 1024 hPa
Zicht: meer dan 10 km
Bewolking: Helder
EBOS 210220Z 11001KT CAVOK M05/M07 Q1024 NOSIG

Script ontwikkeld door  Saratoga-weather.org Aangepast voor de template door  Weerstation Leuven

U vindt ons ook hier:

Het Weer Aktueel

European Weather Network

Weather Underground

Apparatuur in gebruik:

Weerstation
Oregon WMR 200

Webleverancier
one.com

Oregon WMR 200

one.com